Time;durP1;ratioP1;P1;durP2;ratioP2;P2;SDS_P1;SDS_P2;PMS_P1;PMS_P2;Temp;Humidity;BMP_temperature;BMP_pressure;BME280_temperature;BME280_humidity;BME280_pressure;Samples;Min_cycle;Max_cycle;Signal;HPM_P1;HPM_P2
2022/01/12 00:01:37;;;;;;;27.80;14.75;;;3.30;99.90;;;;;;5053224;28;20099;-78
2022/01/12 00:04:11;;;;;;;14.57;9.35;;;3.60;99.90;;;;;;5053136;28;20121;-80
2022/01/12 00:06:40;;;;;;;23.42;10.90;;;3.40;99.90;;;;;;5041494;28;20037;-80
2022/01/12 00:09:07;;;;;;;19.83;11.60;;;3.40;99.90;;;;;;5061836;28;20709;-82
2022/01/12 00:11:35;;;;;;;18.35;10.57;;;3.30;99.90;;;;;;5031437;28;20445;-81
2022/01/12 00:14:01;;;;;;;13.75;8.93;;;3.40;99.90;;;;;;5049757;28;20131;-82
2022/01/12 00:16:26;;;;;;;22.40;13.55;;;3.40;99.90;;;;;;5048307;28;20508;-82
2022/01/12 00:18:52;;;;;;;28.30;13.15;;;3.60;99.90;;;;;;5035096;28;20048;-79
2022/01/12 00:21:24;;;;;;;31.35;11.93;;;3.40;99.90;;;;;;5062497;28;20052;-79
2022/01/12 00:23:50;;;;;;;24.52;11.13;;;3.90;99.90;;;;;;5055898;28;20120;-76
2022/01/12 00:26:42;;;;;;;;;;;3.40;99.90;;;;;;5037909;28;20056;-82
2022/01/12 00:34:48;;;;;;;23.73;8.80;;;3.40;99.90;;;;;;5057597;28;20588;-81
2022/01/12 00:37:15;;;;;;;25.45;10.93;;;3.50;99.90;;;;;;5019234;28;20124;-79
2022/01/12 00:39:40;;;;;;;10.10;6.65;;;3.40;99.90;;;;;;5034440;28;20051;-78
2022/01/12 00:42:10;;;;;;;21.45;9.73;;;3.40;99.90;;;;;;5018290;28;20045;-77
2022/01/12 00:44:36;;;;;;;22.85;9.18;;;3.40;99.90;;;;;;5062222;28;20136;-80
2022/01/12 00:47:02;;;;;;;17.35;10.30;;;3.40;99.90;;;;;;5048881;28;20132;-79
2022/01/12 00:49:28;;;;;;;22.27;11.25;;;3.40;99.90;;;;;;5020171;28;20437;-82
2022/01/12 00:51:55;;;;;;;16.63;8.32;;;3.40;99.90;;;;;;5069179;28;20044;-79
2022/01/12 00:54:27;;;;;;;20.20;11.23;;;3.40;99.90;;;;;;5048720;28;20056;-82
2022/01/12 00:56:52;;;;;;;17.50;8.90;;;3.40;99.90;;;;;;5063401;28;20041;-82
2022/01/12 00:59:18;;;;;;;25.13;12.73;;;3.50;99.90;;;;;;5081158;28;20458;-79
2022/01/12 01:01:44;;;;;;;22.13;11.25;;;3.60;99.90;;;;;;5035832;28;20067;-78
2022/01/12 01:04:09;;;;;;;19.70;10.85;;;3.40;99.90;;;;;;5036264;28;20391;-78
2022/01/12 01:06:36;;;;;;;19.02;9.80;;;3.60;99.90;;;;;;5014223;28;20835;-79
2022/01/12 01:09:03;;;;;;;21.98;10.88;;;3.40;99.90;;;;;;5047228;28;20163;-76
2022/01/12 01:11:30;;;;;;;17.95;8.55;;;3.50;99.90;;;;;;5031302;28;20040;-78
2022/01/12 01:13:58;;;;;;;24.60;11.05;;;3.50;99.90;;;;;;5053014;28;20421;-78
2022/01/12 01:16:43;;;;;;;15.02;10.85;;;4.00;99.90;;;;;;5035469;28;20051;-81
2022/01/12 01:27:25;;;;;;;23.20;9.32;;;3.80;99.90;;;;;;5066653;28;20053;-85
2022/01/12 01:29:53;;;;;;;20.67;10.80;;;3.70;99.90;;;;;;5035933;28;20087;-77
2022/01/12 01:32:19;;;;;;;13.52;8.35;;;3.80;99.90;;;;;;5047318;28;20037;-78
2022/01/12 01:34:48;;;;;;;23.15;9.65;;;4.00;99.90;;;;;;5028539;28;20114;-82
2022/01/12 01:37:15;;;;;;;22.40;10.63;;;3.70;99.90;;;;;;5011622;28;20049;-82
2022/01/12 01:39:46;;;;;;;15.48;9.77;;;3.70;99.90;;;;;;5035951;28;20456;-77
2022/01/12 01:42:20;;;;;;;25.00;12.02;;;3.70;99.90;;;;;;5035252;28;20044;-83
2022/01/12 01:55:30;;;;;;;14.80;9.13;;;3.70;99.90;;;;;;5035566;28;20139;-80
2022/01/12 01:57:56;;;;;;;17.13;9.48;;;3.80;99.90;;;;;;5051674;28;20048;-78
2022/01/12 02:00:25;;;;;;;25.00;9.23;;;3.70;99.90;;;;;;5017700;28;20453;-81
2022/01/12 02:02:56;;;;;;;17.38;9.25;;;3.80;99.90;;;;;;5032545;28;20047;-82
2022/01/12 02:05:22;;;;;;;18.38;8.93;;;3.90;99.90;;;;;;5035501;28;20561;-79
2022/01/12 02:07:48;;;;;;;16.73;8.00;;;3.80;99.90;;;;;;5031626;28;20459;-81
2022/01/12 02:10:15;;;;;;;23.08;8.10;;;4.20;99.90;;;;;;5047951;28;20045;-80
2022/01/12 02:12:42;;;;;;;19.45;8.52;;;3.80;99.90;;;;;;5034908;28;20086;-81
2022/01/12 02:15:21;;;;;;;15.52;8.68;;;3.80;99.90;;;;;;5026672;28;20151;-82
2022/01/12 02:35:13;;;;;;;23.38;9.13;;;3.80;99.90;;;;;;5082979;28;20478;-80
2022/01/12 02:39:55;;;;;;;13.20;6.13;;;4.00;99.90;;;;;;5026969;28;20053;-80
2022/01/12 02:42:23;;;;;;;21.48;6.55;;;4.00;99.90;;;;;;5050590;28;20418;-79
2022/01/12 02:50:43;;;;;;;11.48;6.45;;;4.00;99.90;;;;;;5048198;28;20094;-80
2022/01/12 02:56:17;;;;;;;17.80;5.93;;;4.00;99.90;;;;;;5024326;28;20045;-80
2022/01/12 02:58:44;;;;;;;12.63;6.85;;;3.90;99.90;;;;;;5014653;28;20108;-80
2022/01/12 03:04:04;;;;;;;9.23;6.00;;;3.80;99.90;;;;;;5034588;28;20053;-81
2022/01/12 03:06:35;;;;;;;10.77;6.97;;;3.70;99.90;;;;;;5033341;28;20498;-82
2022/01/12 03:09:01;;;;;;;9.27;6.18;;;3.60;99.90;;;;;;5039091;28;20069;-83
2022/01/12 03:11:28;;;;;;;12.00;6.05;;;3.50;99.90;;;;;;5033178;28;20044;-81
2022/01/12 03:13:54;;;;;;;9.30;5.15;;;3.40;99.90;;;;;;5026126;28;20442;-82
2022/01/12 03:16:24;;;;;;;9.20;5.88;;;4.30;99.90;;;;;;5050740;28;20048;-81
2022/01/12 03:18:52;;;;;;;25.42;6.65;;;3.30;99.90;;;;;;5033378;28;20037;-79
2022/01/12 03:21:21;;;;;;;13.20;4.90;;;3.20;99.90;;;;;;5050030;28;20099;-83
2022/01/12 03:23:49;;;;;;;9.00;7.65;;;4.10;99.90;;;;;;5016929;28;20049;-79
2022/01/12 03:26:15;;;;;;;9.70;6.25;;;2.90;99.90;;;;;;5065297;28;20132;-84
2022/01/12 03:28:51;;;;;;;13.98;5.40;;;3.90;99.90;;;;;;5033287;28;20108;-80
2022/01/12 03:31:20;;;;;;;7.13;5.05;;;3.10;99.90;;;;;;5033714;28;20047;-77
2022/01/12 03:38:54;;;;;;;12.30;5.53;;;2.90;99.90;;;;;;5035577;28;20037;-80
2022/01/12 03:41:32;;;;;;;15.63;6.05;;;2.90;99.90;;;;;;5046978;28;20479;-82
2022/01/12 03:43:59;;;;;;;14.95;4.60;;;2.70;99.90;;;;;;5050709;28;20467;-83
2022/01/12 03:46:30;;;;;;;17.15;6.60;;;2.70;99.90;;;;;;5023170;28;20049;-78
2022/01/12 03:48:56;;;;;;;13.82;7.32;;;2.60;99.90;;;;;;5043801;28;20045;-78
2022/01/12 03:51:22;;;;;;;10.45;7.53;;;2.40;99.90;;;;;;5050129;28;20064;-81
2022/01/12 03:53:48;;;;;;;16.63;6.93;;;3.80;99.90;;;;;;5039011;28;20510;-83
2022/01/12 03:56:14;;;;;;;16.48;5.68;;;2.60;99.90;;;;;;5045216;28;20043;-82
2022/01/12 03:58:42;;;;;;;7.82;5.05;;;2.60;99.90;;;;;;5031199;28;20702;-81
2022/01/12 04:01:08;;;;;;;15.63;6.28;;;2.60;99.90;;;;;;5013765;28;20091;-78
2022/01/12 04:03:41;;;;;;;;;;;2.60;99.90;;;;;;5044701;28;20037;-81
2022/01/12 04:08:51;;;;;;;10.25;5.00;;;3.20;99.90;;;;;;5081767;28;20041;-82
2022/01/12 04:11:17;;;;;;;;;;;3.60;99.90;;;;;;5050580;28;20391;-83
2022/01/12 04:13:43;;;;;;;9.63;4.55;;;2.70;99.90;;;;;;5043127;28;19943;-81
2022/01/12 04:16:11;;;;;;;13.40;6.70;;;2.50;99.90;;;;;;5025714;28;20045;-77
2022/01/12 04:18:38;;;;;;;20.55;7.32;;;2.30;99.90;;;;;;5050430;28;20049;-83
2022/01/12 04:21:07;;;;;;;12.05;6.68;;;2.20;99.90;;;;;;5054957;28;20374;-83
2022/01/12 04:23:35;;;;;;;17.75;4.80;;;2.30;99.90;;;;;;5064173;28;20037;-79
2022/01/12 04:26:04;;;;;;;7.60;5.57;;;2.30;99.90;;;;;;5050959;28;20051;-82
2022/01/12 04:28:30;;;;;;;13.88;5.55;;;3.70;99.90;;;;;;5034141;28;20101;-77
2022/01/12 04:30:56;;;;;;;16.85;8.50;;;2.20;99.90;;;;;;5017943;28;20799;-82
2022/01/12 04:33:23;;;;;;;11.35;4.60;;;2.90;99.90;;;;;;5068660;28;20029;-81
2022/01/12 04:35:54;;;;;;;7.80;4.72;;;2.10;99.90;;;;;;5017498;28;20081;-82
2022/01/12 04:38:27;;;;;;;12.35;6.60;;;2.00;99.90;;;;;;5034996;28;20037;-81
2022/01/12 04:40:53;;;;;;;7.20;5.80;;;2.00;99.90;;;;;;5016975;28;20045;-79
2022/01/12 04:43:21;;;;;;;11.57;6.28;;;1.90;99.90;;;;;;5015461;28;20056;-81
2022/01/12 04:50:44;;;;;;;10.23;4.82;;;2.20;99.90;;;;;;5059181;28;20045;-85
2022/01/12 04:53:11;;;;;;;13.50;6.50;;;1.70;99.90;;;;;;5054873;28;20072;-79
2022/01/12 04:55:38;;;;;;;5.57;4.22;;;1.60;99.90;;;;;;5050240;28;20060;-82
2022/01/12 04:58:05;;;;;;;9.35;4.70;;;1.50;99.90;;;;;;5045003;28;20794;-84
2022/01/12 05:00:32;;;;;;;7.00;4.97;;;1.90;99.90;;;;;;5051309;28;20106;-82
2022/01/12 05:13:48;;;;;;;10.90;4.97;;;1.90;99.90;;;;;;5036680;28;20103;-81
2022/01/12 05:16:14;;;;;;;13.93;4.93;;;1.50;99.90;;;;;;5047503;28;20123;-83
2022/01/12 05:18:42;;;;;;;14.50;3.75;;;1.50;99.90;;;;;;5040511;28;20045;-82
2022/01/12 05:21:09;;;;;;;6.43;3.95;;;1.40;99.90;;;;;;5040789;28;20120;-78
2022/01/12 05:23:35;;;;;;;4.15;3.25;;;3.00;99.90;;;;;;5033079;28;20068;-84
2022/01/12 05:26:01;;;;;;;8.55;5.47;;;1.40;99.90;;;;;;5052137;28;20041;-79
2022/01/12 05:28:28;;;;;;;7.68;4.50;;;2.80;99.90;;;;;;5045557;28;20048;-84
2022/01/12 05:30:55;;;;;;;5.38;4.28;;;1.60;99.90;;;;;;5032526;28;20041;-80
2022/01/12 05:33:23;;;;;;;8.00;3.75;;;1.30;99.90;;;;;;5035545;28;20044;-83
2022/01/12 05:35:50;;;;;;;12.32;4.68;;;2.40;99.90;;;;;;5030222;28;20041;-84
2022/01/12 05:38:16;;;;;;;5.07;3.72;;;1.30;99.90;;;;;;5050680;28;20135;-78
2022/01/12 05:40:46;;;;;;;3.38;3.08;;;1.10;99.90;;;;;;5012694;28;20045;-82
2022/01/12 05:43:23;;;;;;;6.13;5.07;;;1.00;99.90;;;;;;5044577;28;20053;-81
2022/01/12 05:45:49;;;;;;;7.65;4.32;;;1.00;99.90;;;;;;5058194;28;20071;-81
2022/01/12 05:51:01;;;;;;;5.72;3.47;;;0.80;99.90;;;;;;5047887;28;20052;-82
2022/01/12 05:53:30;;;;;;;4.30;2.67;;;0.70;99.90;;;;;;5030903;28;20037;-83
2022/01/12 05:55:56;;;;;;;3.28;2.83;;;0.60;99.90;;;;;;5049820;28;20053;-78
2022/01/12 05:58:21;;;;;;;5.95;4.57;;;0.60;99.90;;;;;;5034489;28;20033;-81
2022/01/12 06:00:47;;;;;;;8.75;4.35;;;1.80;99.90;;;;;;5032215;28;20497;-78
2022/01/12 06:03:13;;;;;;;8.50;5.18;;;0.70;99.90;;;;;;5019223;28;20099;-83
2022/01/12 06:05:38;;;;;;;10.43;3.90;;;0.70;99.90;;;;;;5033838;28;20045;-82
2022/01/12 06:08:04;;;;;;;6.72;3.95;;;0.70;99.90;;;;;;5018242;28;20498;-77
2022/01/12 06:10:31;;;;;;;8.65;2.85;;;0.70;99.90;;;;;;5050652;28;20099;-84
2022/01/12 06:12:57;;;;;;;17.27;4.18;;;1.30;99.90;;;;;;5053822;28;20045;-76
2022/01/12 06:15:23;;;;;;;3.40;3.10;;;0.50;99.90;;;;;;5033163;28;20040;-81
2022/01/12 06:17:48;;;;;;;8.15;3.63;;;2.00;99.90;;;;;;5033146;28;20045;-79
2022/01/12 06:20:14;;;;;;;3.30;2.90;;;0.70;99.90;;;;;;5018293;28;20041;-79
2022/01/12 06:22:40;;;;;;;4.90;2.95;;;0.40;99.90;;;;;;5034353;28;20037;-79
2022/01/12 06:25:09;;;;;;;29.00;3.05;;;0.00;99.90;;;;;;5049167;28;20104;-81
2022/01/12 06:27:36;;;;;;;3.60;2.95;;;0.00;99.90;;;;;;5031251;28;20128;-85
2022/01/12 06:30:15;;;;;;;5.03;3.10;;;0.40;99.90;;;;;;5051356;28;20433;-81
2022/01/12 06:32:41;;;;;;;8.18;4.55;;;0.00;99.90;;;;;;5046330;28;20184;-83
2022/01/12 06:35:07;;;;;;;;;;;0.00;99.90;;;;;;5044640;28;20431;-79
2022/01/12 06:37:32;;;;;;;4.63;3.20;;;0.10;99.90;;;;;;5061991;28;19917;-78
2022/01/12 06:39:58;;;;;;;3.05;2.40;;;0.30;99.90;;;;;;5032937;28;20222;-83
2022/01/12 06:42:25;;;;;;;4.28;3.03;;;0.50;99.90;;;;;;5032803;28;20038;-79
2022/01/12 06:44:51;;;;;;;4.53;2.85;;;0.70;99.90;;;;;;5042573;28;20069;-82
2022/01/12 06:47:19;;;;;;;19.10;3.75;;;0.70;99.90;;;;;;5046322;28;20461;-80
2022/01/12 06:49:44;;;;;;;8.75;4.43;;;0.80;99.90;;;;;;5024796;28;20079;-82
2022/01/12 06:52:10;;;;;;;4.82;3.60;;;2.10;99.90;;;;;;5017184;28;20120;-80
2022/01/12 06:54:36;;;;;;;4.15;3.17;;;0.80;99.90;;;;;;5045603;28;20628;-81
2022/01/12 06:57:02;;;;;;;6.20;3.22;;;0.90;99.90;;;;;;5037894;28;20128;-82
2022/01/12 06:59:28;;;;;;;3.10;2.08;;;0.80;99.90;;;;;;5062808;28;20049;-82
2022/01/12 07:01:53;;;;;;;3.95;3.20;;;2.20;99.90;;;;;;5033427;28;20112;-83
2022/01/12 07:04:20;;;;;;;5.60;3.47;;;0.60;99.90;;;;;;5030147;28;20049;-80
2022/01/12 07:06:46;;;;;;;4.50;3.65;;;0.80;99.90;;;;;;5028697;28;20511;-80
2022/01/12 07:09:12;;;;;;;4.40;3.20;;;2.20;99.90;;;;;;5049070;28;20544;-79
2022/01/12 07:11:42;;;;;;;3.45;2.53;;;2.40;99.90;;;;;;5045570;28;20064;-83
2022/01/12 07:14:07;;;;;;;11.48;3.22;;;2.80;99.90;;;;;;5039404;28;20053;-82
2022/01/12 07:16:33;;;;;;;5.28;2.95;;;1.00;99.90;;;;;;5010017;28;20099;-80
2022/01/12 07:18:59;;;;;;;6.35;3.38;;;2.20;99.90;;;;;;5028204;28;20132;-81
2022/01/12 07:21:26;;;;;;;6.97;3.30;;;1.90;99.90;;;;;;5012580;28;20084;-79
2022/01/12 07:23:58;;;;;;;7.82;3.47;;;0.90;99.90;;;;;;5016439;28;20033;-80
2022/01/12 07:26:24;;;;;;;6.13;3.60;;;2.20;99.90;;;;;;5048407;28;20041;-80
2022/01/12 07:28:50;;;;;;;3.83;2.50;;;2.10;99.90;;;;;;5011324;28;20047;-80
2022/01/12 07:31:19;;;;;;;5.07;3.33;;;2.50;99.90;;;;;;5048255;28;20048;-79
2022/01/12 07:33:46;;;;;;;7.82;3.45;;;2.20;99.90;;;;;;5057384;28;20036;-80
2022/01/12 07:36:37;;;;;;;3.92;2.80;;;1.20;99.90;;;;;;5017375;28;20045;-82
2022/01/12 07:39:08;;;;;;;4.47;3.13;;;0.80;99.90;;;;;;5050486;28;20079;-80
2022/01/12 07:41:34;;;;;;;7.25;3.90;;;0.70;99.90;;;;;;5013556;28;20053;-78
2022/01/12 07:44:00;;;;;;;4.32;2.78;;;2.40;99.90;;;;;;5030148;28;20055;-81
2022/01/12 07:46:26;;;;;;;4.00;2.72;;;2.00;99.90;;;;;;5047653;28;20054;-81
2022/01/12 07:48:52;;;;;;;7.35;2.65;;;0.60;99.90;;;;;;5036952;28;20044;-79
2022/01/12 07:51:19;;;;;;;6.78;3.35;;;1.70;99.90;;;;;;5017867;28;20037;-77
2022/01/12 07:53:45;;;;;;;3.28;2.90;;;0.40;99.90;;;;;;5035001;28;20798;-78
2022/01/12 07:56:16;;;;;;;6.65;2.47;;;0.40;99.90;;;;;;5035277;28;20083;-80
2022/01/12 07:58:42;;;;;;;6.93;2.83;;;0.70;99.90;;;;;;5030832;28;20041;-80
2022/01/12 08:01:08;;;;;;;6.55;2.60;;;2.10;99.90;;;;;;5012701;28;20116;-79
2022/01/12 08:03:34;;;;;;;6.20;3.28;;;0.20;99.90;;;;;;5017914;28;20063;-80
2022/01/12 08:06:00;;;;;;;5.07;3.42;;;0.40;99.90;;;;;;5030029;28;20132;-81
2022/01/12 08:08:27;;;;;;;4.60;2.55;;;0.40;99.90;;;;;;5038905;28;20045;-80
2022/01/12 08:10:53;;;;;;;3.95;2.58;;;0.40;99.90;;;;;;5020455;28;20036;-80
2022/01/12 08:13:19;;;;;;;18.70;2.22;;;1.80;99.90;;;;;;5018373;28;20444;-78
2022/01/12 08:15:44;;;;;;;4.90;4.30;;;0.50;99.90;;;;;;5030518;28;20044;-81
2022/01/12 08:18:10;;;;;;;3.05;2.53;;;0.50;99.90;;;;;;5018286;28;20487;-80
2022/01/12 08:20:36;;;;;;;11.30;3.85;;;0.60;99.90;;;;;;5054905;28;20044;-76
2022/01/12 08:23:08;;;;;;;4.80;3.03;;;0.90;99.90;;;;;;5043311;28;20567;-78
2022/01/12 08:25:37;;;;;;;6.07;3.72;;;0.60;99.90;;;;;;5057368;28;20045;-80
2022/01/12 08:28:04;;;;;;;22.40;3.55;;;2.10;99.90;;;;;;5018369;28;20056;-80
2022/01/12 08:30:31;;;;;;;3.60;3.03;;;0.90;99.90;;;;;;5052695;28;20045;-78
2022/01/12 08:32:57;;;;;;;4.68;3.47;;;0.70;99.90;;;;;;5043912;28;20041;-80
2022/01/12 08:35:23;;;;;;;4.15;2.88;;;0.70;99.90;;;;;;5045366;28;20103;-78
2022/01/12 08:37:49;;;;;;;6.15;4.22;;;1.70;99.90;;;;;;5061410;28;20045;-82
2022/01/12 08:40:17;;;;;;;13.57;3.25;;;0.90;99.90;;;;;;5022030;28;20052;-79
2022/01/12 08:42:43;;;;;;;6.88;4.13;;;0.90;99.90;;;;;;5031896;28;20487;-79
2022/01/12 08:45:09;;;;;;;;;;;0.90;99.90;;;;;;5026627;28;20045;-81
2022/01/12 08:47:35;;;;;;;5.83;3.23;;;1.00;99.90;;;;;;5028715;28;20005;-79
2022/01/12 08:50:02;;;;;;;3.72;2.85;;;0.90;99.90;;;;;;5030614;28;20128;-81
2022/01/12 08:52:30;;;;;;;4.20;3.45;;;1.00;99.90;;;;;;5038700;28;20041;-80
2022/01/12 08:54:56;;;;;;;5.82;2.63;;;1.00;99.90;;;;;;5049410;28;20144;-76
2022/01/12 08:57:22;;;;;;;5.32;2.88;;;2.20;99.90;;;;;;5049576;28;20049;-75
2022/01/12 08:59:48;;;;;;;7.90;3.80;;;1.50;99.90;;;;;;5012051;28;20060;-83
2022/01/12 09:02:14;;;;;;;;;;;0.70;99.90;;;;;;5037024;28;20053;-80
2022/01/12 09:04:44;;;;;;;5.20;3.40;;;1.10;99.90;;;;;;5052863;28;19968;-79
2022/01/12 09:07:10;;;;;;;3.00;2.70;;;1.10;99.90;;;;;;5027010;28;20056;-81
2022/01/12 09:09:36;;;;;;;11.45;3.75;;;1.20;99.90;;;;;;5029781;28;20102;-78
2022/01/12 09:12:04;;;;;;;4.13;2.67;;;3.10;99.90;;;;;;5050148;28;20047;-79
2022/01/12 09:14:31;;;;;;;3.30;2.80;;;1.30;99.90;;;;;;5016701;28;20051;-78
2022/01/12 09:16:58;;;;;;;3.65;2.45;;;2.80;99.90;;;;;;5053073;28;20037;-80
2022/01/12 09:19:25;;;;;;;7.18;3.72;;;1.40;99.90;;;;;;5019655;28;20049;-78
2022/01/12 09:21:53;;;;;;;4.18;2.88;;;1.80;99.90;;;;;;5042224;28;20045;-81
2022/01/12 09:24:28;;;;;;;21.25;3.38;;;2.10;99.90;;;;;;5033122;28;20072;-81
2022/01/12 09:26:54;;;;;;;6.05;2.70;;;1.50;99.90;;;;;;5016308;28;20083;-79
2022/01/12 09:29:19;;;;;;;4.30;2.90;;;1.50;99.90;;;;;;5014998;28;20044;-81
2022/01/12 09:31:45;;;;;;;4.40;3.10;;;1.50;99.90;;;;;;5016150;28;20059;-81
2022/01/12 09:34:11;;;;;;;6.25;3.08;;;2.50;99.90;;;;;;5041659;28;20672;-81
2022/01/12 09:36:37;;;;;;;3.55;2.63;;;1.60;99.90;;;;;;5029540;28;20038;-80
2022/01/12 09:39:16;;;;;;;4.25;3.17;;;1.60;99.90;;;;;;5048580;28;20039;-84
2022/01/12 09:41:41;;;;;;;3.03;1.95;;;1.90;99.90;;;;;;5057706;28;20049;-83
2022/01/12 09:44:08;;;;;;;5.13;3.22;;;1.70;99.90;;;;;;5047237;28;20055;-78
2022/01/12 09:46:34;;;;;;;9.27;3.40;;;1.80;99.90;;;;;;5017681;28;20105;-81
2022/01/12 09:49:01;;;;;;;12.68;2.63;;;1.80;99.90;;;;;;5018928;28;20060;-81
2022/01/12 09:51:30;;;;;;;3.28;2.55;;;2.10;99.90;;;;;;5034021;28;20044;-81
2022/01/12 09:54:10;;;;;;;4.15;2.33;;;2.10;99.90;;;;;;5047224;28;20519;-80
2022/01/12 09:56:36;;;;;;;2.55;2.35;;;1.80;99.90;;;;;;5036436;28;20044;-78
2022/01/12 09:59:02;;;;;;;3.28;2.65;;;1.80;99.90;;;;;;5032603;28;20112;-74
2022/01/12 10:01:35;;;;;;;3.10;2.15;;;0.90;99.90;;;;;;5038349;28;20041;-79
2022/01/12 10:04:12;;;;;;;3.22;2.33;;;3.10;99.90;;;;;;5044947;28;20104;-78
2022/01/12 10:07:03;;;;;;;4.05;3.65;;;1.90;99.90;;;;;;5022512;28;20048;-81
2022/01/12 10:09:33;;;;;;;4.47;3.25;;;1.90;99.90;;;;;;5054019;28;20108;-79
2022/01/12 10:12:01;;;;;;;4.35;2.40;;;2.00;99.90;;;;;;5053047;28;20435;-83
2022/01/12 10:14:45;;;;;;;3.45;2.42;;;2.90;99.90;;;;;;5064920;28;20045;-82
2022/01/12 10:17:13;;;;;;;4.18;2.83;;;2.20;99.90;;;;;;5049776;28;20044;-78
2022/01/12 10:19:40;;;;;;;3.92;2.55;;;3.90;99.90;;;;;;5052295;28;20044;-81
2022/01/12 10:22:10;;;;;;;3.20;2.63;;;3.50;99.90;;;;;;5034060;28;20044;-79
2022/01/12 10:24:42;;;;;;;2.75;1.85;;;2.30;99.90;;;;;;5047277;28;20049;-81
2022/01/12 10:27:21;;;;;;;3.60;2.45;;;2.50;99.90;;;;;;5048112;28;20409;-83
2022/01/12 10:30:04;;;;;;;4.13;2.95;;;1.60;99.90;;;;;;5014710;28;20079;-83
2022/01/12 10:32:42;;;;;;;4.28;2.63;;;2.60;99.90;;;;;;5063236;28;20029;-80
2022/01/12 10:35:26;;;;;;;3.70;1.75;;;2.90;99.90;;;;;;5043337;28;20047;-84
2022/01/12 10:37:52;;;;;;;3.50;2.30;;;2.70;99.90;;;;;;5026710;28;20076;-80
2022/01/12 10:40:21;;;;;;;4.53;2.92;;;2.90;99.90;;;;;;5031097;28;20056;-82
2022/01/12 10:42:54;;;;;;;3.38;2.65;;;2.80;99.90;;;;;;5047908;28;20102;-80
2022/01/12 10:45:25;;;;;;;3.22;2.10;;;3.00;99.90;;;;;;5042751;28;20057;-77
2022/01/12 10:47:59;;;;;;;3.50;2.05;;;2.80;99.90;;;;;;5028339;28;20111;-80
2022/01/12 10:50:27;;;;;;;4.65;3.00;;;3.00;99.90;;;;;;5055339;28;20040;-76
2022/01/12 10:52:53;;;;;;;7.95;2.90;;;3.20;99.90;;;;;;5053177;28;20107;-80
2022/01/12 10:55:19;;;;;;;3.65;2.40;;;2.60;99.90;;;;;;5034072;28;20538;-77
2022/01/12 10:57:46;;;;;;;5.13;2.83;;;3.00;99.90;;;;;;5049357;28;20129;-79
2022/01/12 11:00:24;;;;;;;3.08;1.92;;;3.10;99.90;;;;;;5033205;28;20068;-81
2022/01/12 11:02:53;;;;;;;4.57;2.95;;;3.20;99.90;;;;;;5048731;28;20107;-78
2022/01/12 11:05:23;;;;;;;5.15;3.25;;;3.30;99.90;;;;;;5044806;28;20136;-82
2022/01/12 11:07:51;;;;;;;4.43;2.75;;;3.40;99.90;;;;;;5050234;28;20049;-86
2022/01/12 11:10:19;;;;;;;6.97;2.05;;;3.50;99.90;;;;;;5031175;28;20045;-80
2022/01/12 11:12:46;;;;;;;4.88;2.55;;;3.50;99.90;;;;;;5048374;28;20120;-80
2022/01/12 11:15:13;;;;;;;3.67;2.40;;;3.60;99.90;;;;;;5030999;28;20128;-80
2022/01/12 11:17:42;;;;;;;5.47;2.47;;;4.00;99.90;;;;;;5042721;28;20072;-83
2022/01/12 11:20:30;;;;;;;5.93;2.75;;;3.80;99.90;;;;;;5043420;28;20088;-83
2022/01/12 11:23:12;;;;;;;2.75;2.40;;;3.90;99.90;;;;;;5032408;28;20102;-79
2022/01/12 11:25:41;;;;;;;5.63;2.75;;;4.00;99.90;;;;;;5029240;28;20045;-79
2022/01/12 11:28:11;;;;;;;5.55;2.63;;;4.00;99.90;;;;;;5030498;28;20076;-79
2022/01/12 11:30:46;;;;;;;3.67;2.35;;;3.40;99.90;;;;;;5027553;28;20131;-79
2022/01/12 11:33:13;;;;;;;6.75;3.50;;;4.20;99.90;;;;;;5030316;28;20033;-79
2022/01/12 11:35:41;;;;;;;6.10;2.80;;;4.30;99.90;;;;;;5029919;28;20068;-79
2022/01/12 11:38:18;;;;;;;3.90;2.40;;;4.20;99.90;;;;;;5045427;28;20053;-81
2022/01/12 11:40:55;;;;;;;7.80;3.45;;;4.30;99.90;;;;;;5028526;28;20052;-85
2022/01/12 11:43:29;;;;;;;;;;;4.30;99.90;;;;;;5050291;28;20123;-80
2022/01/12 11:46:07;;;;;;;5.20;2.95;;;4.50;99.90;;;;;;5101464;28;19924;-85
2022/01/12 11:49:09;;;;;;;3.15;1.70;;;5.40;99.90;;;;;;5024902;28;20033;-84
2022/01/12 11:51:49;;;;;;;3.72;2.45;;;4.40;99.90;;;;;;5057826;28;20383;-79
2022/01/12 11:54:17;;;;;;;5.97;2.67;;;4.40;99.90;;;;;;5065798;28;20095;-84
2022/01/12 11:57:01;;;;;;;5.25;2.60;;;4.40;99.90;;;;;;5042902;28;20080;-80
2022/01/12 11:59:48;;;;;;;7.15;3.88;;;4.40;99.90;;;;;;5048875;28;20040;-83
2022/01/12 12:02:14;;;;;;;3.58;2.60;;;4.50;99.90;;;;;;5061855;28;20045;-81
2022/01/12 12:04:55;;;;;;;7.28;3.60;;;4.40;99.90;;;;;;5049050;28;20726;-83
2022/01/12 12:07:25;;;;;;;5.28;3.20;;;4.50;99.90;;;;;;5024044;28;20053;-82
2022/01/12 12:09:57;;;;;;;3.17;2.85;;;4.60;99.90;;;;;;5024637;28;20071;-85
2022/01/12 12:12:26;;;;;;;4.53;3.60;;;4.70;99.90;;;;;;5045598;28;20045;-83
2022/01/12 12:14:57;;;;;;;2.63;2.42;;;4.70;99.90;;;;;;5028395;28;20061;-78
2022/01/12 12:17:25;;;;;;;5.78;2.92;;;6.30;99.90;;;;;;5045931;28;20429;-83
2022/01/12 12:19:51;;;;;;;6.13;3.45;;;4.80;99.90;;;;;;5051233;28;20056;-78
2022/01/12 12:22:19;;;;;;;4.63;2.90;;;4.90;99.90;;;;;;5018384;28;20461;-81
2022/01/12 12:24:49;;;;;;;4.97;2.85;;;5.00;99.90;;;;;;5026130;28;20471;-79
2022/01/12 12:27:20;;;;;;;13.15;2.95;;;5.10;99.90;;;;;;5020873;28;20091;-82
2022/01/12 12:29:46;;;;;;;11.13;4.65;;;5.20;99.90;;;;;;5041032;28;20112;-82
2022/01/12 12:32:13;;;;;;;15.63;4.13;;;5.20;99.90;;;;;;5029350;28;20037;-83
2022/01/12 12:34:43;;;;;;;4.60;2.30;;;5.20;99.90;;;;;;5032134;28;20037;-77
2022/01/12 12:37:15;;;;;;;7.55;4.15;;;5.20;99.90;;;;;;5053444;28;20056;-79
2022/01/12 12:39:46;;;;;;;7.47;3.75;;;5.20;99.90;;;;;;5052717;28;20041;-82
2022/01/12 12:42:20;;;;;;;8.00;4.80;;;5.30;99.90;;;;;;5039689;28;20132;-79
2022/01/12 12:44:53;;;;;;;8.75;2.92;;;5.50;99.90;;;;;;5034837;28;20048;-78
2022/01/12 12:47:19;;;;;;;10.93;4.15;;;5.40;99.90;;;;;;5050557;28;20056;-78
2022/01/12 12:49:57;;;;;;;10.25;3.80;;;5.50;99.90;;;;;;5050608;28;20045;-79
2022/01/12 12:52:34;;;;;;;12.25;4.50;;;5.50;99.90;;;;;;5050471;28;20033;-80
2022/01/12 12:55:03;;;;;;;5.10;3.08;;;5.50;99.90;;;;;;5049883;28;20057;-79
2022/01/12 12:57:29;;;;;;;8.75;4.28;;;5.80;99.90;;;;;;5061137;28;20079;-80
2022/01/12 13:00:18;;;;;;;10.73;5.85;;;5.20;99.90;;;;;;5036175;28;20072;-83
2022/01/12 13:02:48;;;;;;;8.68;4.28;;;5.60;99.90;;;;;;5018645;28;20072;-80
2022/01/12 13:05:23;;;;;;;16.00;4.70;;;5.50;99.90;;;;;;5034316;28;20114;-81
2022/01/12 13:07:54;;;;;;;6.95;4.30;;;5.50;99.90;;;;;;5036060;28;20041;-82
2022/01/12 13:10:25;;;;;;;7.57;4.13;;;5.70;99.90;;;;;;5030245;28;20034;-81
2022/01/12 13:12:58;;;;;;;9.13;4.70;;;;;;;;;;5030468;28;20037;-80
2022/01/12 13:15:28;;;;;;;16.35;5.13;;;;;;;;;;5007689;28;20041;-82
2022/01/12 13:18:09;;;;;;;7.40;4.47;;;5.80;99.90;;;;;;5020715;28;20037;-79
2022/01/12 13:23:31;;;;;;;8.20;4.82;;;5.80;99.90;;;;;;5074850;28;20215;-79
2022/01/12 13:26:01;;;;;;;5.60;4.35;;;5.50;99.90;;;;;;5027821;28;20080;-82
2022/01/12 13:28:28;;;;;;;8.38;4.85;;;5.40;99.90;;;;;;5050853;28;20053;-79
2022/01/12 13:31:00;;;;;;;7.53;4.25;;;5.50;99.90;;;;;;5016905;28;20045;-81
2022/01/12 13:33:33;;;;;;;8.93;4.78;;;5.30;99.90;;;;;;5038118;28;20068;-79
2022/01/12 13:36:23;;;;;;;12.20;4.80;;;5.40;99.90;;;;;;5026056;28;20122;-82
2022/01/12 13:39:06;;;;;;;8.48;4.45;;;5.60;99.90;;;;;;5031971;28;20041;-82
2022/01/12 13:41:35;;;;;;;11.65;5.88;;;5.20;99.90;;;;;;5032575;28;20382;-80
2022/01/12 13:44:07;;;;;;;5.43;3.25;;;5.20;99.90;;;;;;5052050;28;20130;-78
2022/01/12 13:46:52;;;;;;;5.50;3.13;;;5.30;99.90;;;;;;5045397;28;20506;-81
2022/01/12 13:52:07;;;;;;;6.65;4.63;;;5.40;99.90;;;;;;5059038;28;20041;-79
2022/01/12 13:54:37;;;;;;;8.13;4.30;;;5.00;99.90;;;;;;5040448;28;20041;-81
2022/01/12 13:57:05;;;;;;;3.85;2.92;;;5.20;99.90;;;;;;5040444;28;20046;-81
2022/01/12 13:59:32;;;;;;;10.20;5.13;;;5.60;99.90;;;;;;5019697;28;20045;-78
2022/01/12 14:01:59;;;;;;;6.60;3.88;;;5.30;99.90;;;;;;5049560;28;20044;-79
2022/01/12 14:04:43;;;;;;;5.85;4.35;;;5.40;99.90;;;;;;5056243;28;20080;-79
2022/01/12 14:07:24;;;;;;;4.82;3.47;;;5.30;99.90;;;;;;5046851;28;20057;-81
2022/01/12 14:09:55;;;;;;;6.13;4.03;;;5.40;99.90;;;;;;5031740;28;20045;-82
2022/01/12 14:12:27;;;;;;;8.05;2.63;;;5.30;99.90;;;;;;5037319;28;20045;-78
2022/01/12 14:15:02;;;;;;;5.78;3.95;;;5.60;99.90;;;;;;5026623;28;20053;-82
2022/01/12 14:17:44;;;;;;;7.10;4.75;;;5.20;99.90;;;;;;5049070;28;20037;-79
2022/01/12 14:20:30;;;;;;;8.20;3.90;;;4.90;99.90;;;;;;5032196;28;20130;-80
2022/01/12 14:22:59;;;;;;;6.13;3.03;;;5.20;99.90;;;;;;5030641;28;20156;-83
2022/01/12 14:25:46;;;;;;;4.97;2.05;;;5.10;99.90;;;;;;5038414;28;20067;-78
2022/01/12 14:28:25;;;;;;;6.35;3.35;;;5.20;99.90;;;;;;5047926;28;20120;-80
2022/01/12 14:30:51;;;;;;;10.65;4.53;;;5.10;99.90;;;;;;5047200;28;20039;-81
2022/01/12 14:33:18;;;;;;;9.50;3.10;;;5.00;99.90;;;;;;5049222;28;20041;-80
2022/01/12 14:35:43;;;;;;;;;;;4.90;99.90;;;;;;5048301;28;20091;-82